Hb106 — WDJ5771 — position and weather

sailwx.info

Track history (hours):
 
Tides and Currents Weather Stations Pressure Air Temp Water Temp Dewpoint Dewpoint Depression Visibility Wind Speed Wind Dir Waves Ship Positions

Hb106

Owner: HNY Ferry Fleet LLC, New York, NY. More information available from US FCC via Universal Licensing System and Coast Guard Vessel Documentation Center.

Last reported at 2018-Jun-24 01:41 UTC. Time now 2018-Jun-24 03:10 UTC.
Position N 40°42' W 073°58'.

Length 26 m; draft 2 m.

Type: Passenger vessel. MMSI: 367791140.

Date/timePositionNaut miles runAvg speedWind from/ knotsBaromVisibWave heightAir tempDewpointWater temp
2018-Jun-24 01:41N 40°42' W 073°58'0 1.1
2018-Jun-24 01:30N 40°42' W 073°58'4 8.5
2018-Jun-24 01:00N 40°39' W 074°02'4 2.5
2018-Jun-23 23:23N 40°35' W 074°01'720.3
2018-Jun-23 23:00N 40°42' W 074°00'4 7.1
2018-Jun-23 22:30N 40°39' W 074°02'4 2.4
2018-Jun-23 20:54N 40°35' W 074°02'718.8
2018-Jun-23 20:30N 40°42' W 074°00'0 0.1
2018-Jun-23 20:00N 40°42' W 074°00'2 2.3
2018-Jun-23 19:20N 40°42' W 073°58'2 5.6
2018-Jun-23 19:01N 40°44' W 073°58'2 3.7
2018-Jun-23 18:30N 40°42' W 073°58'0 0.0
2018-Jun-23 18:00N 40°42' W 073°58'0 0.0
2018-Jun-23 17:30N 40°42' W 073°58'0 0.1
2018-Jun-23 17:00N 40°42' W 073°58'1 2.2
2018-Jun-23 16:30N 40°42' W 073°60'3 5.1
2018-Jun-23 16:00N 40°44' W 073°58'1 2.1
2018-Jun-23 15:29N 40°43' W 073°58'2 4.4
2018-Jun-23 15:00N 40°42' W 074°00'1 1.6
2018-Jun-23 14:30N 40°41' W 074°01'2 4.3
2018-Jun-23 14:00N 40°43' W 073°58'2 4.2
2018-Jun-23 13:30N 40°45' W 073°58'2 4.2
2018-Jun-23 13:00N 40°43' W 073°58'2 3.2
2018-Jun-23 12:30N 40°42' W 074°00'0 0.1
2018-Jun-23 12:00N 40°42' W 074°00'2 4.8
2018-Jun-23 11:30N 40°44' W 073°58'1 1.1
2018-Jun-23 11:00N 40°43' W 073°58'1 2.4
2018-Jun-23 10:30N 40°42' W 073°58'0 0.0
2018-Jun-23 10:00N 40°42' W 073°58'0 0.0
2018-Jun-23 02:39N 40°42' W 073°58'1 7.9
2018-Jun-23 02:30N 40°42' W 073°60'2 3.5
2018-Jun-23 02:00N 40°41' W 074°01'2 4.2
2018-Jun-23 01:30N 40°39' W 074°02'4 7.2
2018-Jun-23 01:00N 40°42' W 073°60'1 2.8
2018-Jun-23 00:31N 40°41' W 074°01'2 4.5
2018-Jun-23 00:00N 40°39' W 074°02'4 7.3
2018-Jun-22 23:31N 40°42' W 073°60'0 0.8
2018-Jun-22 23:01N 40°42' W 074°00'3 6.7
2018-Jun-22 22:30N 40°39' W 074°02'2 4.8
2018-Jun-22 22:00N 40°41' W 074°01'1 2.7
2018-Jun-22 21:30N 40°42' W 073°60'4 7.4
2018-Jun-22 21:01N 40°39' W 074°02'2 4.8
2018-Jun-22 20:30N 40°41' W 074°01'1 1.8
2018-Jun-22 20:01N 40°42' W 074°00'4 7.3
2018-Jun-22 19:29N 40°38' W 074°02'2 4.8
2018-Jun-22 19:00N 40°41' W 074°01'3 5.5
2018-Jun-22 18:30N 40°42' W 073°59'0 0.4
2018-Jun-22 18:00N 40°42' W 073°58'1 2.9
2018-Jun-22 17:30N 40°42' W 074°00'2 3.1
2018-Jun-22 17:00N 40°42' W 073°58'0 0.4
2018-Jun-22 16:30N 40°42' W 073°58'0 0.0
2018-Jun-22 16:00N 40°42' W 073°58'0 0.0
2018-Jun-22 15:30N 40°42' W 073°58'2 3.3
2018-Jun-22 15:00N 40°42' W 074°00'3 6.3
2018-Jun-22 14:31N 40°39' W 074°02'3 5.8
2018-Jun-22 14:00N 40°41' W 074°00'0 0.5
2018-Jun-22 13:30N 40°42' W 074°00'3 6.3
2018-Jun-22 13:00N 40°39' W 074°02'3 6.4
2018-Jun-22 12:31N 40°42' W 074°00'0 0.2
2018-Jun-22 12:00N 40°42' W 074°00'3 6.3
2018-Jun-22 11:30N 40°39' W 074°02'3 5.5
2018-Jun-22 11:01N 40°41' W 074°01'2 3.7
2018-Jun-22 10:30N 40°42' W 073°58'0 0.2
2018-Jun-22 10:00N 40°42' W 073°58'0 0.0
2018-Jun-22 02:48N 40°42' W 073°58'1 3.3
2018-Jun-22 02:31N 40°43' W 073°58'2 4.2
2018-Jun-22 02:00N 40°45' W 073°57'3 7.0
2018-Jun-22 01:30N 40°42' W 074°00'4 6.8
2018-Jun-22 00:53N 40°46' W 073°57'1 1.9
2018-Jun-22 00:30N 40°45' W 073°57'3 7.1
2018-Jun-22 00:00N 40°42' W 074°00'4 7.5
2018-Jun-21 23:29N 40°45' W 073°57'1 1.2
2018-Jun-21 23:00N 40°45' W 073°57'3 6.8
2018-Jun-21 22:30N 40°42' W 074°00'4 7.4
2018-Jun-21 21:58N 40°45' W 073°57'1 1.3
2018-Jun-21 21:30N 40°45' W 073°57'3 6.9
2018-Jun-21 21:00N 40°42' W 074°00'3 5.9
2018-Jun-21 20:30N 40°45' W 073°58'1 1.9
2018-Jun-21 19:54N 40°45' W 073°57'3 7.4
2018-Jun-21 19:30N 40°43' W 073°58'2 4.0
2018-Jun-21 19:01N 40°45' W 073°58'1 2.2
2018-Jun-21 18:24N 40°46' W 073°57'2 6.2
2018-Jun-21 18:01N 40°43' W 073°58'1 2.5
2018-Jun-21 17:28N 40°45' W 073°58'1 2.1
2018-Jun-21 16:55N 40°45' W 073°57'3 7.3
2018-Jun-21 16:30N 40°43' W 073°59'2 3.9
2018-Jun-21 15:58N 40°45' W 073°58'1 2.5
2018-Jun-21 15:26N 40°46' W 073°57'2 5.4
2018-Jun-21 15:00N 40°44' W 073°58'2 4.3
2018-Jun-21 14:31N 40°42' W 074°00'4 8.3
2018-Jun-21 14:01N 40°45' W 073°57'1 1.4
2018-Jun-21 13:30N 40°45' W 073°57'3 5.8
2018-Jun-21 13:01N 40°42' W 073°60'4 7.6
2018-Jun-21 12:30N 40°46' W 073°57'1 2.0
2018-Jun-21 12:00N 40°45' W 073°58'3 6.8
2018-Jun-21 11:31N 40°42' W 074°00'5 9.5
2018-Jun-21 10:58N 40°46' W 073°56'5 9.6
2018-Jun-21 10:30N 40°42' W 073°58'0 0.0
2018-Jun-21 10:00N 40°42' W 073°58'0 0.0
2018-Jun-21 03:00N 40°42' W 073°58'1 2.4
2018-Jun-21 02:31N 40°42' W 073°60'2 4.6
2018-Jun-21 02:01N 40°44' W 073°58'1 1.3
2018-Jun-21 01:31N 40°43' W 073°58'1 2.1
2018-Jun-21 01:00N 40°42' W 073°58'1 2.6
2018-Jun-21 00:31N 40°42' W 074°00'2 4.8
2018-Jun-21 00:00N 40°44' W 073°58'1 1.3
2018-Jun-20 23:30N 40°43' W 073°58'2 4.3
2018-Jun-20 23:01N 40°42' W 074°00'2 3.0
2018-Jun-20 22:30N 40°43' W 073°58'2 4.2
2018-Jun-20 22:00N 40°45' W 073°58'2 4.3
2018-Jun-20 21:30N 40°43' W 073°58'2 3.3
2018-Jun-20 21:00N 40°42' W 074°00'2 4.2
2018-Jun-20 20:30N 40°43' W 073°58'1 2.6
2018-Jun-20 20:01N 40°45' W 073°58'3 5.5
2018-Jun-20 19:30N 40°42' W 073°60'1 1.9
2018-Jun-20 19:01N 40°42' W 073°58'1 2.2
2018-Jun-20 18:30N 40°43' W 073°58'1 2.5
2018-Jun-20 18:01N 40°45' W 073°58'3 5.3
2018-Jun-20 17:31N 40°42' W 073°60'1 1.2
2018-Jun-20 17:01N 40°42' W 074°00'2 4.2
2018-Jun-20 16:30N 40°43' W 073°58'1 2.6
2018-Jun-20 16:01N 40°45' W 073°58'3 5.5
2018-Jun-20 15:30N 40°42' W 073°60'0 0.9
2018-Jun-20 15:00N 40°42' W 074°00'2 4.2
2018-Jun-20 14:30N 40°43' W 073°58'1 2.5
2018-Jun-20 14:01N 40°45' W 073°58'3 5.1
2018-Jun-20 13:31N 40°42' W 073°59'0 0.6
2018-Jun-20 13:01N 40°42' W 073°60'3 5.4
2018-Jun-20 12:29N 40°45' W 073°58'3 2.2
2018-Jun-20 11:18N 40°42' W 073°58'1 2.3
2018-Jun-20 11:00N 40°42' W 073°59'3 5.1
2018-Jun-20 10:31N 40°43' W 074°02'0 0.1
2018-Jun-20 10:00N 40°43' W 074°02'1 1.1
2018-Jun-20 09:31N 40°43' W 074°02'3 3.2
2018-Jun-20 08:42N 40°42' W 073°58'0 0.1
2018-Jun-20 08:30N 40°42' W 073°58'0 0.0
2018-Jun-20 08:00N 40°42' W 073°58'0 0.0
2018-Jun-20 07:30N 40°42' W 073°58'0 0.0
2018-Jun-20 07:00N 40°42' W 073°58'0 0.0
2018-Jun-20 06:30N 40°42' W 073°58'0 0.0
2018-Jun-20 06:00N 40°42' W 073°58'0 0.0
2018-Jun-20 05:30N 40°42' W 073°58'0 0.0
2018-Jun-20 05:00N 40°42' W 073°58'0 0.1
2018-Jun-20 04:30N 40°42' W 073°58'0 0.0
2018-Jun-20 04:00N 40°42' W 073°58'0 0.0
2018-Jun-20 03:30N 40°42' W 073°58'0 0.0
2018-Jun-20 03:00N 40°42' W 073°58'1 2.2
2018-Jun-20 02:30N 40°43' W 073°58'2 3.8
2018-Jun-20 02:00N 40°45' W 073°57'3 7.0
2018-Jun-20 01:30N 40°42' W 074°00'4 7.7
2018-Jun-20 00:59N 40°45' W 073°57'1 1.1
2018-Jun-20 00:30N 40°45' W 073°57'3 7.1
2018-Jun-20 00:00N 40°42' W 074°00'4 6.9
2018-Jun-19 23:26N 40°45' W 073°57'0 1.1
2018-Jun-19 22:59N 40°45' W 073°57'4 7.2
2018-Jun-19 22:30N 40°42' W 074°00'4 7.9
2018-Jun-19 21:59N 40°45' W 073°57'1 1.2
2018-Jun-19 21:31N 40°45' W 073°57'3 6.9
2018-Jun-19 21:00N 40°42' W 074°00'3 5.7
2018-Jun-19 20:30N 40°45' W 073°58'1 1.8
2018-Jun-19 19:53N 40°45' W 073°57'3 7.2
2018-Jun-19 19:30N 40°43' W 073°58'2 3.6
2018-Jun-19 19:00N 40°45' W 073°58'2 4.4
2018-Jun-19 18:29N 40°46' W 073°56'3 6.3
2018-Jun-19 18:00N 40°44' W 073°58'1 1.9
2018-Jun-19 17:27N 40°45' W 073°58'2 4.9
2018-Jun-19 17:00N 40°46' W 073°56'3 6.2
2018-Jun-19 16:31N 40°44' W 073°58'1 1.7
2018-Jun-19 15:56N 40°45' W 073°58'1 1.3
2018-Jun-19 15:16N 40°45' W 073°57'2 6.3
2018-Jun-19 15:00N 40°44' W 073°58'2 4.5
2018-Jun-19 14:30N 40°42' W 074°00'4 8.0
2018-Jun-19 14:00N 40°45' W 073°57'0 0.8
2018-Jun-19 13:30N 40°45' W 073°57'4 7.5
2018-Jun-19 13:00N 40°42' W 074°00'4 4.9
2018-Jun-19 12:10N 40°46' W 073°57'1 4.7
2018-Jun-19 12:00N 40°45' W 073°57'3 6.1
2018-Jun-19 11:30N 40°42' W 073°60'5 8.2
2018-Jun-19 10:55N 40°46' W 073°56'410.0
2018-Jun-19 10:31N 40°43' W 073°58'0 0.9
2018-Jun-19 10:00N 40°42' W 073°58'0 0.0
2018-Jun-19 02:50N 40°42' W 073°58'0 0.5
2018-Jun-19 02:30N 40°42' W 073°58'1 2.1
2018-Jun-19 02:00N 40°43' W 073°58'2 4.3
2018-Jun-19 01:30N 40°42' W 074°00'0 0.7
2018-Jun-19 01:00N 40°42' W 073°60'2 4.6
2018-Jun-19 00:31N 40°44' W 073°58'1 1.2
2018-Jun-19 00:00N 40°43' W 073°58'2 4.3
2018-Jun-18 23:30N 40°42' W 074°00'2 4.3
2018-Jun-18 23:00N 40°43' W 073°58'1 2.3
2018-Jun-18 22:30N 40°45' W 073°58'3 5.5
2018-Jun-18 22:00N 40°42' W 073°60'1 2.2
2018-Jun-18 21:30N 40°43' W 073°58'2 4.3
2018-Jun-18 21:00N 40°45' W 073°58'2 4.3
2018-Jun-18 20:30N 40°43' W 073°58'2 3.3
2018-Jun-18 20:00N 40°42' W 074°00'2 4.3
2018-Jun-18 19:30N 40°43' W 073°58'1 2.5
2018-Jun-18 19:01N 40°45' W 073°58'3 5.3
2018-Jun-18 18:30N 40°42' W 073°60'1 1.2
2018-Jun-18 18:00N 40°42' W 074°00'2 4.3
2018-Jun-18 17:30N 40°43' W 073°58'1 2.7
2018-Jun-18 16:58N 40°45' W 073°58'3 5.7
2018-Jun-18 16:30N 40°42' W 073°58'1 1.2
2018-Jun-18 16:00N 40°42' W 073°59'1 2.3
2018-Jun-18 15:30N 40°43' W 073°58'1 2.5
2018-Jun-18 15:01N 40°45' W 073°58'3 5.1
2018-Jun-18 14:30N 40°42' W 073°60'0 0.3
2018-Jun-18 14:00N 40°42' W 073°60'2 4.4
2018-Jun-18 13:31N 40°44' W 073°58'1 1.3
2018-Jun-18 13:01N 40°43' W 073°58'2 4.2
2018-Jun-18 12:30N 40°42' W 074°00'2 4.3
2018-Jun-18 12:00N 40°43' W 073°58'1 2.5
2018-Jun-18 11:30N 40°45' W 073°58'3 5.4
2018-Jun-18 11:01N 40°42' W 073°60'1 2.1
2018-Jun-18 10:30N 40°42' W 073°58'0 0.0
2018-Jun-18 10:00N 40°42' W 073°58'2 0.1
2018-Jun-17 15:11N 40°42' W 074°00'2 9.9
2018-Jun-17 15:00N 40°43' W 074°02'0 0.0
2018-Jun-17 14:30N 40°43' W 074°02'2 3.1
2018-Jun-17 13:56N 40°42' W 074°00'713.8
2018-Jun-17 13:27N 40°35' W 074°02'916.4
2018-Jun-17 12:54N 40°35' W 073°50'4 9.8
2018-Jun-17 12:30N 40°34' W 073°55'714.3
2018-Jun-17 12:01N 40°39' W 074°02'3 6.4
2018-Jun-17 11:28N 40°42' W 074°00'614.1
2018-Jun-17 11:01N 40°36' W 074°02'711.5
2018-Jun-17 10:24N 40°34' W 073°53'820.7
2018-Jun-17 10:01N 40°38' W 074°03'6 0.7
2018-Jun-17 01:29N 40°42' W 073°58'2 3.2
2018-Jun-17 01:00N 40°42' W 074°00'1 1.8
2018-Jun-17 00:30N 40°41' W 074°01'1 2.5
2018-Jun-17 00:00N 40°42' W 074°00'2 4.9
2018-Jun-16 23:31N 40°40' W 074°01'1 2.3
2018-Jun-16 23:00N 40°41' W 074°01'1 2.5
2018-Jun-16 22:30N 40°42' W 074°00'4 8.1
2018-Jun-16 22:01N 40°38' W 074°02'4 7.0
2018-Jun-16 21:30N 40°42' W 074°00'0 0.8
2018-Jun-16 21:00N 40°42' W 074°01'0 0.8
2018-Jun-16 20:30N 40°42' W 074°00'4 7.1
2018-Jun-16 20:00N 40°38' W 074°02'4 7.2
2018-Jun-16 19:31N 40°42' W 074°00'1 1.1
2018-Jun-16 19:00N 40°42' W 074°00'1 2.9
2018-Jun-16 18:31N 40°41' W 074°01'2 3.1
2018-Jun-16 18:01N 40°39' W 074°02'3 5.9
2018-Jun-16 17:30N 40°42' W 074°00'0 0.6
2018-Jun-16 17:00N 40°42' W 074°00'4 7.0
2018-Jun-16 16:30N 40°39' W 074°02'3 6.3
2018-Jun-16 16:00N 40°42' W 074°00'1 1.6
2018-Jun-16 15:30N 40°42' W 073°60'1 0.1
2018-Jun-16 02:40N 40°42' W 073°58'0 0.8
2018-Jun-16 02:30N 40°42' W 073°58'3 5.6
2018-Jun-16 01:58N 40°45' W 073°57'4 8.0
2018-Jun-16 01:30N 40°42' W 074°00'4 7.8
2018-Jun-16 00:59N 40°45' W 073°57'0 0.1
2018-Jun-16 00:30N 40°45' W 073°57'4 8.0
2018-Jun-16 00:00N 40°42' W 074°00'4 7.4
2018-Jun-15 23:28N 40°45' W 073°57'1 1.1
2018-Jun-15 22:55N 40°45' W 073°57'3 8.5
2018-Jun-15 22:30N 40°42' W 074°00'4 7.7
2018-Jun-15 21:58N 40°45' W 073°57'1 1.1
2018-Jun-15 21:29N 40°45' W 073°57'4 7.4
2018-Jun-15 21:00N 40°42' W 074°00'3 5.9
2018-Jun-15 20:30N 40°45' W 073°58'2 4.4
2018-Jun-15 20:00N 40°46' W 073°56'3 6.6
2018-Jun-15 19:30N 40°43' W 073°58'1 2.3
2018-Jun-15 19:00N 40°45' W 073°58'1 1.9
2018-Jun-15 18:22N 40°45' W 073°57'3 7.3
2018-Jun-15 18:01N 40°43' W 073°58'2 3.1
2018-Jun-15 17:30N 40°45' W 073°58'1 2.1
2018-Jun-15 16:53N 40°46' W 073°57'3 6.7
2018-Jun-15 16:30N 40°43' W 073°58'1 3.0
2018-Jun-15 16:01N 40°45' W 073°58'1 1.2
2018-Jun-15 15:31N 40°45' W 073°58'3 6.9
2018-Jun-15 15:00N 40°42' W 074°00'3 7.0
2018-Jun-15 14:30N 40°45' W 073°57'1 1.5
2018-Jun-15 14:00N 40°46' W 073°57'4 8.5
2018-Jun-15 13:30N 40°42' W 074°00'4 7.2
2018-Jun-15 13:00N 40°45' W 073°57'0 0.9
2018-Jun-15 12:29N 40°45' W 073°57'4 8.6
2018-Jun-15 12:00N 40°42' W 074°00'4 7.8
2018-Jun-15 11:29N 40°45' W 073°57'3 7.1
2018-Jun-15 11:01N 40°42' W 073°58'0 0.4
2018-Jun-15 10:30N 40°42' W 073°58'0 0.0
2018-Jun-14 23:58N 40°42' W 073°58'1 2.3
2018-Jun-14 23:31N 40°42' W 073°60'4 4.6
2018-Jun-14 22:43N 40°45' W 073°57'1 5.6
2018-Jun-14 22:29N 40°45' W 073°58'2 4.5
2018-Jun-14 22:01N 40°42' W 073°59'4 7.1
2018-Jun-14 21:24N 40°46' W 073°56'2 5.5
2018-Jun-14 20:59N 40°45' W 073°58'4 7.5
2018-Jun-14 20:30N 40°42' W 074°01'1 2.2
2018-Jun-14 20:01N 40°42' W 073°60'1 2.2
2018-Jun-14 19:30N 40°42' W 073°58'0 0.7
2018-Jun-14 19:01N 40°42' W 073°59'3 5.3
2018-Jun-14 18:30N 40°45' W 073°58'612.9
2018-Jun-14 18:00N 40°39' W 074°02'3 6.5
2018-Jun-14 17:31N 40°42' W 074°00'4 7.1
2018-Jun-14 17:01N 40°39' W 074°02'1 1.2
2018-Jun-14 16:30N 40°38' W 074°02'5 9.7
2018-Jun-14 16:00N 40°42' W 073°58'  
Track history (hours):
 
Tides and Currents Weather Stations Pressure Air Temp Water Temp Dewpoint Dewpoint Depression Visibility Wind Speed Wind Dir Waves Ship Positions

Hb106

Owner: HNY Ferry Fleet LLC, New York, NY. More information available from US FCC via Universal Licensing System and Coast Guard Vessel Documentation Center.

Last reported at 2018-Jun-24 01:41 UTC. Time now 2018-Jun-24 03:10 UTC.
Position N 40°42' W 073°58'.

Length 26 m; draft 2 m.

Type: Passenger vessel. MMSI: 367791140.

Date/timePositionNaut miles runAvg speedWind from/ knotsBaromVisibWave heightAir tempDewpointWater temp
2018-Jun-24 01:41N 40°42' W 073°58'0 1.1
2018-Jun-24 01:30N 40°42' W 073°58'4 8.5
2018-Jun-24 01:00N 40°39' W 074°02'4 2.5
2018-Jun-23 23:23N 40°35' W 074°01'720.3
2018-Jun-23 23:00N 40°42' W 074°00'4 7.1
2018-Jun-23 22:30N 40°39' W 074°02'4 2.4
2018-Jun-23 20:54N 40°35' W 074°02'718.8
2018-Jun-23 20:30N 40°42' W 074°00'0 0.1
2018-Jun-23 20:00N 40°42' W 074°00'2 2.3
2018-Jun-23 19:20N 40°42' W 073°58'2 5.6
2018-Jun-23 19:01N 40°44' W 073°58'2 3.7
2018-Jun-23 18:30N 40°42' W 073°58'0 0.0
2018-Jun-23 18:00N 40°42' W 073°58'0 0.0
2018-Jun-23 17:30N 40°42' W 073°58'0 0.1
2018-Jun-23 17:00N 40°42' W 073°58'1 2.2
2018-Jun-23 16:30N 40°42' W 073°60'3 5.1
2018-Jun-23 16:00N 40°44' W 073°58'1 2.1
2018-Jun-23 15:29N 40°43' W 073°58'2 4.4
2018-Jun-23 15:00N 40°42' W 074°00'1 1.6
2018-Jun-23 14:30N 40°41' W 074°01'2 4.3
2018-Jun-23 14:00N 40°43' W 073°58'2 4.2
2018-Jun-23 13:30N 40°45' W 073°58'2 4.2
2018-Jun-23 13:00N 40°43' W 073°58'2 3.2
2018-Jun-23 12:30N 40°42' W 074°00'0 0.1
2018-Jun-23 12:00N 40°42' W 074°00'2 4.8
2018-Jun-23 11:30N 40°44' W 073°58'1 1.1
2018-Jun-23 11:00N 40°43' W 073°58'1 2.4
2018-Jun-23 10:30N 40°42' W 073°58'0 0.0
2018-Jun-23 10:00N 40°42' W 073°58'0 0.0
2018-Jun-23 02:39N 40°42' W 073°58'1 7.9
2018-Jun-23 02:30N 40°42' W 073°60'2 3.5
2018-Jun-23 02:00N 40°41' W 074°01'2 4.2
2018-Jun-23 01:30N 40°39' W 074°02'4 7.2
2018-Jun-23 01:00N 40°42' W 073°60'1 2.8
2018-Jun-23 00:31N 40°41' W 074°01'2 4.5
2018-Jun-23 00:00N 40°39' W 074°02'4 7.3
2018-Jun-22 23:31N 40°42' W 073°60'0 0.8
2018-Jun-22 23:01N 40°42' W 074°00'3 6.7
2018-Jun-22 22:30N 40°39' W 074°02'2 4.8
2018-Jun-22 22:00N 40°41' W 074°01'1 2.7
2018-Jun-22 21:30N 40°42' W 073°60'4 7.4
2018-Jun-22 21:01N 40°39' W 074°02'2 4.8
2018-Jun-22 20:30N 40°41' W 074°01'1 1.8
2018-Jun-22 20:01N 40°42' W 074°00'4 7.3
2018-Jun-22 19:29N 40°38' W 074°02'2 4.8
2018-Jun-22 19:00N 40°41' W 074°01'3 5.5
2018-Jun-22 18:30N 40°42' W 073°59'0 0.4
2018-Jun-22 18:00N 40°42' W 073°58'1 2.9
2018-Jun-22 17:30N 40°42' W 074°00'2 3.1
2018-Jun-22 17:00N 40°42' W 073°58'0 0.4
2018-Jun-22 16:30N 40°42' W 073°58'0 0.0
2018-Jun-22 16:00N 40°42' W 073°58'0 0.0
2018-Jun-22 15:30N 40°42' W 073°58'2 3.3
2018-Jun-22 15:00N 40°42' W 074°00'3 6.3
2018-Jun-22 14:31N 40°39' W 074°02'3 5.8
2018-Jun-22 14:00N 40°41' W 074°00'0 0.5
2018-Jun-22 13:30N 40°42' W 074°00'3 6.3
2018-Jun-22 13:00N 40°39' W 074°02'3 6.4
2018-Jun-22 12:31N 40°42' W 074°00'0 0.2
2018-Jun-22 12:00N 40°42' W 074°00'3 6.3
2018-Jun-22 11:30N 40°39' W 074°02'3 5.5
2018-Jun-22 11:01N 40°41' W 074°01'2 3.7
2018-Jun-22 10:30N 40°42' W 073°58'0 0.2
2018-Jun-22 10:00N 40°42' W 073°58'0 0.0
2018-Jun-22 02:48N 40°42' W 073°58'1 3.3
2018-Jun-22 02:31N 40°43' W 073°58'2 4.2
2018-Jun-22 02:00N 40°45' W 073°57'3 7.0
2018-Jun-22 01:30N 40°42' W 074°00'4 6.8
2018-Jun-22 00:53N 40°46' W 073°57'1 1.9
2018-Jun-22 00:30N 40°45' W 073°57'3 7.1
2018-Jun-22 00:00N 40°42' W 074°00'4 7.5
2018-Jun-21 23:29N 40°45' W 073°57'1 1.2
2018-Jun-21 23:00N 40°45' W 073°57'3 6.8
2018-Jun-21 22:30N 40°42' W 074°00'4 7.4
2018-Jun-21 21:58N 40°45' W 073°57'1 1.3
2018-Jun-21 21:30N 40°45' W 073°57'3 6.9
2018-Jun-21 21:00N 40°42' W 074°00'3 5.9
2018-Jun-21 20:30N 40°45' W 073°58'1 1.9
2018-Jun-21 19:54N 40°45' W 073°57'3 7.4
2018-Jun-21 19:30N 40°43' W 073°58'2 4.0
2018-Jun-21 19:01N 40°45' W 073°58'1 2.2
2018-Jun-21 18:24N 40°46' W 073°57'2 6.2
2018-Jun-21 18:01N 40°43' W 073°58'1 2.5
2018-Jun-21 17:28N 40°45' W 073°58'1 2.1
2018-Jun-21 16:55N 40°45' W 073°57'3 7.3
2018-Jun-21 16:30N 40°43' W 073°59'2 3.9
2018-Jun-21 15:58N 40°45' W 073°58'1 2.5
2018-Jun-21 15:26N 40°46' W 073°57'2 5.4
2018-Jun-21 15:00N 40°44' W 073°58'2 4.3
2018-Jun-21 14:31N 40°42' W 074°00'4 8.3
2018-Jun-21 14:01N 40°45' W 073°57'1 1.4
2018-Jun-21 13:30N 40°45' W 073°57'3 5.8
2018-Jun-21 13:01N 40°42' W 073°60'4 7.6
2018-Jun-21 12:30N 40°46' W 073°57'1 2.0
2018-Jun-21 12:00N 40°45' W 073°58'3 6.8
2018-Jun-21 11:31N 40°42' W 074°00'5 9.5
2018-Jun-21 10:58N 40°46' W 073°56'5 9.6
2018-Jun-21 10:30N 40°42' W 073°58'0 0.0
2018-Jun-21 10:00N 40°42' W 073°58'0 0.0
2018-Jun-21 03:00N 40°42' W 073°58'1 2.4
2018-Jun-21 02:31N 40°42' W 073°60'2 4.6
2018-Jun-21 02:01N 40°44' W 073°58'1 1.3
2018-Jun-21 01:31N 40°43' W 073°58'1 2.1
2018-Jun-21 01:00N 40°42' W 073°58'1 2.6
2018-Jun-21 00:31N 40°42' W 074°00'2 4.8
2018-Jun-21 00:00N 40°44' W 073°58'1 1.3
2018-Jun-20 23:30N 40°43' W 073°58'2 4.3
2018-Jun-20 23:01N 40°42' W 074°00'2 3.0
2018-Jun-20 22:30N 40°43' W 073°58'2 4.2
2018-Jun-20 22:00N 40°45' W 073°58'2 4.3
2018-Jun-20 21:30N 40°43' W 073°58'2 3.3
2018-Jun-20 21:00N 40°42' W 074°00'2 4.2
2018-Jun-20 20:30N 40°43' W 073°58'1 2.6
2018-Jun-20 20:01N 40°45' W 073°58'3 5.5
2018-Jun-20 19:30N 40°42' W 073°60'1 1.9
2018-Jun-20 19:01N 40°42' W 073°58'1 2.2
2018-Jun-20 18:30N 40°43' W 073°58'1 2.5
2018-Jun-20 18:01N 40°45' W 073°58'3 5.3
2018-Jun-20 17:31N 40°42' W 073°60'1 1.2
2018-Jun-20 17:01N 40°42' W 074°00'2 4.2
2018-Jun-20 16:30N 40°43' W 073°58'1 2.6
2018-Jun-20 16:01N 40°45' W 073°58'3 5.5
2018-Jun-20 15:30N 40°42' W 073°60'0 0.9
2018-Jun-20 15:00N 40°42' W 074°00'2 4.2
2018-Jun-20 14:30N 40°43' W 073°58'1 2.5
2018-Jun-20 14:01N 40°45' W 073°58'3 5.1
2018-Jun-20 13:31N 40°42' W 073°59'0 0.6
2018-Jun-20 13:01N 40°42' W 073°60'3 5.4
2018-Jun-20 12:29N 40°45' W 073°58'3 2.2
2018-Jun-20 11:18N 40°42' W 073°58'1 2.3
2018-Jun-20 11:00N 40°42' W 073°59'3 5.1
2018-Jun-20 10:31N 40°43' W 074°02'0 0.1
2018-Jun-20 10:00N 40°43' W 074°02'1 1.1
2018-Jun-20 09:31N 40°43' W 074°02'3 3.2
2018-Jun-20 08:42N 40°42' W 073°58'0 0.1
2018-Jun-20 08:30N 40°42' W 073°58'0 0.0
2018-Jun-20 08:00N 40°42' W 073°58'0 0.0
2018-Jun-20 07:30N 40°42' W 073°58'0 0.0
2018-Jun-20 07:00N 40°42' W 073°58'0 0.0
2018-Jun-20 06:30N 40°42' W 073°58'0 0.0
2018-Jun-20 06:00N 40°42' W 073°58'0 0.0
2018-Jun-20 05:30N 40°42' W 073°58'0 0.0
2018-Jun-20 05:00N 40°42' W 073°58'0 0.1
2018-Jun-20 04:30N 40°42' W 073°58'0 0.0
2018-Jun-20 04:00N 40°42' W 073°58'0 0.0
2018-Jun-20 03:30N 40°42' W 073°58'0 0.0
2018-Jun-20 03:00N 40°42' W 073°58'1 2.2
2018-Jun-20 02:30N 40°43' W 073°58'2 3.8
2018-Jun-20 02:00N 40°45' W 073°57'3 7.0
2018-Jun-20 01:30N 40°42' W 074°00'4 7.7
2018-Jun-20 00:59N 40°45' W 073°57'1 1.1
2018-Jun-20 00:30N 40°45' W 073°57'3 7.1
2018-Jun-20 00:00N 40°42' W 074°00'4 6.9
2018-Jun-19 23:26N 40°45' W 073°57'0 1.1
2018-Jun-19 22:59N 40°45' W 073°57'4 7.2
2018-Jun-19 22:30N 40°42' W 074°00'4 7.9
2018-Jun-19 21:59N 40°45' W 073°57'1 1.2
2018-Jun-19 21:31N 40°45' W 073°57'3 6.9
2018-Jun-19 21:00N 40°42' W 074°00'3 5.7
2018-Jun-19 20:30N 40°45' W 073°58'1 1.8
2018-Jun-19 19:53N 40°45' W 073°57'3 7.2
2018-Jun-19 19:30N 40°43' W 073°58'2 3.6
2018-Jun-19 19:00N 40°45' W 073°58'2 4.4
2018-Jun-19 18:29N 40°46' W 073°56'3 6.3
2018-Jun-19 18:00N 40°44' W 073°58'1 1.9
2018-Jun-19 17:27N 40°45' W 073°58'2 4.9
2018-Jun-19 17:00N 40°46' W 073°56'3 6.2
2018-Jun-19 16:31N 40°44' W 073°58'1 1.7
2018-Jun-19 15:56N 40°45' W 073°58'1 1.3
2018-Jun-19 15:16N 40°45' W 073°57'2 6.3
2018-Jun-19 15:00N 40°44' W 073°58'2 4.5
2018-Jun-19 14:30N 40°42' W 074°00'4 8.0
2018-Jun-19 14:00N 40°45' W 073°57'0 0.8
2018-Jun-19 13:30N 40°45' W 073°57'4 7.5
2018-Jun-19 13:00N 40°42' W 074°00'4 4.9
2018-Jun-19 12:10N 40°46' W 073°57'1 4.7
2018-Jun-19 12:00N 40°45' W 073°57'3 6.1
2018-Jun-19 11:30N 40°42' W 073°60'5 8.2
2018-Jun-19 10:55N 40°46' W 073°56'410.0
2018-Jun-19 10:31N 40°43' W 073°58'0 0.9
2018-Jun-19 10:00N 40°42' W 073°58'0 0.0
2018-Jun-19 02:50N 40°42' W 073°58'0 0.5
2018-Jun-19 02:30N 40°42' W 073°58'1 2.1
2018-Jun-19 02:00N 40°43' W 073°58'2 4.3
2018-Jun-19 01:30N 40°42' W 074°00'0 0.7
2018-Jun-19 01:00N 40°42' W 073°60'2 4.6
2018-Jun-19 00:31N 40°44' W 073°58'1 1.2
2018-Jun-19 00:00N 40°43' W 073°58'2 4.3
2018-Jun-18 23:30N 40°42' W 074°00'2 4.3
2018-Jun-18 23:00N 40°43' W 073°58'1 2.3
2018-Jun-18 22:30N 40°45' W 073°58'3 5.5
2018-Jun-18 22:00N 40°42' W 073°60'1 2.2
2018-Jun-18 21:30N 40°43' W 073°58'2 4.3
2018-Jun-18 21:00N 40°45' W 073°58'2 4.3
2018-Jun-18 20:30N 40°43' W 073°58'2 3.3
2018-Jun-18 20:00N 40°42' W 074°00'2 4.3
2018-Jun-18 19:30N 40°43' W 073°58'1 2.5
2018-Jun-18 19:01N 40°45' W 073°58'3 5.3
2018-Jun-18 18:30N 40°42' W 073°60'1 1.2
2018-Jun-18 18:00N 40°42' W 074°00'2 4.3
2018-Jun-18 17:30N 40°43' W 073°58'1 2.7
2018-Jun-18 16:58N 40°45' W 073°58'3 5.7
2018-Jun-18 16:30N 40°42' W 073°58'1 1.2
2018-Jun-18 16:00N 40°42' W 073°59'1 2.3
2018-Jun-18 15:30N 40°43' W 073°58'1 2.5
2018-Jun-18 15:01N 40°45' W 073°58'3 5.1
2018-Jun-18 14:30N 40°42' W 073°60'0 0.3
2018-Jun-18 14:00N 40°42' W 073°60'2 4.4
2018-Jun-18 13:31N 40°44' W 073°58'1 1.3
2018-Jun-18 13:01N 40°43' W 073°58'2 4.2
2018-Jun-18 12:30N 40°42' W 074°00'2 4.3
2018-Jun-18 12:00N 40°43' W 073°58'1 2.5
2018-Jun-18 11:30N 40°45' W 073°58'3 5.4
2018-Jun-18 11:01N 40°42' W 073°60'1 2.1
2018-Jun-18 10:30N 40°42' W 073°58'0 0.0
2018-Jun-18 10:00N 40°42' W 073°58'2 0.1
2018-Jun-17 15:11N 40°42' W 074°00'2 9.9
2018-Jun-17 15:00N 40°43' W 074°02'0 0.0
2018-Jun-17 14:30N 40°43' W 074°02'2 3.1
2018-Jun-17 13:56N 40°42' W 074°00'713.8
2018-Jun-17 13:27N 40°35' W 074°02'916.4
2018-Jun-17 12:54N 40°35' W 073°50'4 9.8
2018-Jun-17 12:30N 40°34' W 073°55'714.3
2018-Jun-17 12:01N 40°39' W 074°02'3 6.4
2018-Jun-17 11:28N 40°42' W 074°00'614.1
2018-Jun-17 11:01N 40°36' W 074°02'711.5
2018-Jun-17 10:24N 40°34' W 073°53'820.7
2018-Jun-17 10:01N 40°38' W 074°03'6 0.7
2018-Jun-17 01:29N 40°42' W 073°58'2 3.2
2018-Jun-17 01:00N 40°42' W 074°00'1 1.8
2018-Jun-17 00:30N 40°41' W 074°01'1 2.5
2018-Jun-17 00:00N 40°42' W 074°00'2 4.9
2018-Jun-16 23:31N 40°40' W 074°01'1 2.3
2018-Jun-16 23:00N 40°41' W 074°01'1 2.5
2018-Jun-16 22:30N 40°42' W 074°00'4 8.1
2018-Jun-16 22:01N 40°38' W 074°02'4 7.0
2018-Jun-16 21:30N 40°42' W 074°00'0 0.8
2018-Jun-16 21:00N 40°42' W 074°01'0 0.8
2018-Jun-16 20:30N 40°42' W 074°00'4 7.1
2018-Jun-16 20:00N 40°38' W 074°02'4 7.2
2018-Jun-16 19:31N 40°42' W 074°00'1 1.1
2018-Jun-16 19:00N 40°42' W 074°00'1 2.9
2018-Jun-16 18:31N 40°41' W 074°01'2 3.1
2018-Jun-16 18:01N 40°39' W 074°02'3 5.9
2018-Jun-16 17:30N 40°42' W 074°00'0 0.6
2018-Jun-16 17:00N 40°42' W 074°00'4 7.0
2018-Jun-16 16:30N 40°39' W 074°02'3 6.3
2018-Jun-16 16:00N 40°42' W 074°00'1 1.6
2018-Jun-16 15:30N 40°42' W 073°60'1 0.1
2018-Jun-16 02:40N 40°42' W 073°58'0 0.8
2018-Jun-16 02:30N 40°42' W 073°58'3 5.6
2018-Jun-16 01:58N 40°45' W 073°57'4 8.0
2018-Jun-16 01:30N 40°42' W 074°00'4 7.8
2018-Jun-16 00:59N 40°45' W 073°57'0 0.1
2018-Jun-16 00:30N 40°45' W 073°57'4 8.0
2018-Jun-16 00:00N 40°42' W 074°00'4 7.4
2018-Jun-15 23:28N 40°45' W 073°57'1 1.1
2018-Jun-15 22:55N 40°45' W 073°57'3 8.5
2018-Jun-15 22:30N 40°42' W 074°00'4 7.7
2018-Jun-15 21:58N 40°45' W 073°57'1 1.1
2018-Jun-15 21:29N 40°45' W 073°57'4 7.4
2018-Jun-15 21:00N 40°42' W 074°00'3 5.9
2018-Jun-15 20:30N 40°45' W 073°58'2 4.4
2018-Jun-15 20:00N 40°46' W 073°56'3 6.6
2018-Jun-15 19:30N 40°43' W 073°58'1 2.3
2018-Jun-15 19:00N 40°45' W 073°58'1 1.9
2018-Jun-15 18:22N 40°45' W 073°57'3 7.3
2018-Jun-15 18:01N 40°43' W 073°58'2 3.1
2018-Jun-15 17:30N 40°45' W 073°58'1 2.1
2018-Jun-15 16:53N 40°46' W 073°57'3 6.7
2018-Jun-15 16:30N 40°43' W 073°58'1 3.0
2018-Jun-15 16:01N 40°45' W 073°58'1 1.2
2018-Jun-15 15:31N 40°45' W 073°58'3 6.9
2018-Jun-15 15:00N 40°42' W 074°00'3 7.0
2018-Jun-15 14:30N 40°45' W 073°57'1 1.5
2018-Jun-15 14:00N 40°46' W 073°57'4 8.5
2018-Jun-15 13:30N 40°42' W 074°00'4 7.2
2018-Jun-15 13:00N 40°45' W 073°57'0 0.9
2018-Jun-15 12:29N 40°45' W 073°57'4 8.6
2018-Jun-15 12:00N 40°42' W 074°00'4 7.8
2018-Jun-15 11:29N 40°45' W 073°57'3 7.1
2018-Jun-15 11:01N 40°42' W 073°58'0 0.4
2018-Jun-15 10:30N 40°42' W 073°58'0 0.0
2018-Jun-14 23:58N 40°42' W 073°58'1 2.3
2018-Jun-14 23:31N 40°42' W 073°60'4 4.6
2018-Jun-14 22:43N 40°45' W 073°57'1 5.6
2018-Jun-14 22:29N 40°45' W 073°58'2 4.5
2018-Jun-14 22:01N 40°42' W 073°59'4 7.1
2018-Jun-14 21:24N 40°46' W 073°56'2 5.5
2018-Jun-14 20:59N 40°45' W 073°58'4 7.5
2018-Jun-14 20:30N 40°42' W 074°01'1 2.2
2018-Jun-14 20:01N 40°42' W 073°60'1 2.2
2018-Jun-14 19:30N 40°42' W 073°58'0 0.7
2018-Jun-14 19:01N 40°42' W 073°59'3 5.3
2018-Jun-14 18:30N 40°45' W 073°58'612.9
2018-Jun-14 18:00N 40°39' W 074°02'3 6.5
2018-Jun-14 17:31N 40°42' W 074°00'4 7.1
2018-Jun-14 17:01N 40°39' W 074°02'1 1.2
2018-Jun-14 16:30N 40°38' W 074°02'5 9.7
2018-Jun-14 16:00N 40°42' W 073°58'  

Dump ship's entire track history